createdAt,value
2022-10-01T05:03:51.399Z,98590.06
2022-10-01T05:07:53.640Z,98593.25
2022-10-01T05:11:55.812Z,98594.34
2022-10-01T05:16:02.354Z,98602.84
2022-10-01T05:20:06.700Z,98599.91
2022-10-01T05:24:08.809Z,98601.41
2022-10-01T05:28:10.856Z,98593.34
2022-10-01T05:32:13.354Z,98608.34
2022-10-01T05:36:16.155Z,98602.41
2022-10-01T05:40:18.612Z,98602.25
2022-10-01T05:44:20.689Z,98613.63
2022-10-01T05:48:22.777Z,98616.16
2022-10-01T05:52:24.865Z,98605.59
2022-10-01T05:56:26.933Z,98615.97
2022-10-01T06:00:31.518Z,98607.22
2022-10-01T06:04:37.750Z,98621.44
2022-10-01T06:08:45.498Z,98604.53
2022-10-01T06:12:48.591Z,98616.16
2022-10-01T06:19:56.183Z,98629.06
2022-10-01T06:23:58.239Z,98638.34
2022-10-01T06:28:00.954Z,98653.94
2022-10-01T06:32:03.228Z,98655.16
2022-10-01T06:36:05.609Z,98658.50
2022-10-01T06:40:08.075Z,98669.81
2022-10-01T06:44:10.534Z,98671.78
2022-10-01T06:48:14.952Z,98687.41
2022-10-01T06:52:35.642Z,98689.53
2022-10-01T06:56:37.854Z,98698.84
2022-10-01T07:00:40.301Z,98706.22
2022-10-01T07:04:42.371Z,98711.97
2022-10-01T07:08:44.530Z,98699.56
2022-10-01T07:12:50.404Z,98696.66
2022-10-01T07:16:53.028Z,98695.44
2022-10-01T07:20:57.572Z,98689.13
2022-10-01T07:24:59.669Z,98690.22
2022-10-01T07:29:01.941Z,98685.72
2022-10-01T07:33:04.070Z,98691.19
2022-10-01T07:37:06.943Z,98703.16
2022-10-01T07:41:09.745Z,98703.09
2022-10-01T07:45:12.165Z,98709.19
2022-10-01T07:49:17.331Z,98708.63
2022-10-01T07:57:50.329Z,98735.69
2022-10-01T08:01:53.239Z,98732.72
2022-10-01T08:05:55.743Z,98727.81
2022-10-01T08:09:58.034Z,98717.91
2022-10-01T08:14:00.366Z,98729.09
2022-10-01T08:18:04.262Z,98730.88
2022-10-01T08:22:07.305Z,98732.97
2022-10-01T08:26:11.671Z,98735.97
2022-10-01T08:30:14.012Z,98732.59
2022-10-01T08:34:16.244Z,98742.31
2022-10-01T08:38:19.810Z,98731.22
2022-10-01T08:42:37.538Z,98727.25
2022-10-01T08:46:39.996Z,98729.16
2022-10-01T08:50:53.887Z,98732.81
2022-10-01T08:55:00.743Z,98733.56
2022-10-01T08:59:13.292Z,98727.19
2022-10-01T09:03:16.945Z,98736.41
2022-10-01T09:07:28.956Z,98742.81
2022-10-01T09:11:59.212Z,98745.31
2022-10-01T09:16:38.873Z,98752.84
2022-10-01T09:20:47.904Z,98757.34
2022-10-01T09:25:14.092Z,98764.31
2022-10-01T09:29:24.295Z,98761.97
2022-10-01T09:33:39.969Z,98761.00
2022-10-01T09:37:49.178Z,98767.28
2022-10-01T09:41:52.224Z,98770.19
2022-10-01T09:45:55.213Z,98763.78
2022-10-01T09:50:03.494Z,98756.34
2022-10-01T09:54:11.505Z,98765.84
2022-10-01T10:00:24.838Z,98754.06
2022-10-01T10:04:35.898Z,98756.41
2022-10-01T10:08:40.344Z,98751.75
2022-10-01T10:12:44.246Z,98753.66
2022-10-01T10:16:48.731Z,98768.47
2022-10-01T10:20:55.111Z,98762.09
2022-10-01T10:25:05.531Z,98755.59
2022-10-01T10:29:25.034Z,98743.84
2022-10-01T10:33:27.448Z,98748.84
2022-10-01T10:37:34.619Z,98737.13
2022-10-01T10:41:37.507Z,98746.00
2022-10-01T10:45:45.414Z,98741.81
2022-10-01T10:49:48.781Z,98749.34
2022-10-01T10:53:51.031Z,98745.94
2022-10-01T10:57:57.327Z,98738.72
2022-10-01T11:02:02.523Z,98727.69
2022-10-01T11:06:31.565Z,98729.84
2022-10-01T11:10:53.379Z,98719.56
2022-10-01T11:15:24.853Z,98722.28
2022-10-01T11:19:48.733Z,98722.03
2022-10-01T11:23:51.230Z,98721.31
2022-10-01T11:28:31.950Z,98720.69
2022-10-01T11:32:41.807Z,98718.53
2022-10-01T11:36:50.957Z,98718.19
2022-10-01T11:41:23.927Z,98721.81
2022-10-01T11:45:32.699Z,98718.97
2022-10-01T11:49:47.971Z,98724.91
2022-10-01T11:53:58.428Z,98726.66
2022-10-01T11:58:30.276Z,98731.59
2022-10-01T12:02:47.665Z,98719.84
2022-10-01T12:06:55.829Z,98720.88
2022-10-01T12:11:11.866Z,98723.31
2022-10-01T12:15:23.546Z,98714.13
2022-10-01T12:19:36.615Z,98697.91
2022-10-01T12:23:51.146Z,98706.78
2022-10-01T12:28:12.681Z,98702.19
2022-10-01T12:32:30.642Z,98700.09
2022-10-01T12:36:44.478Z,98699.50
2022-10-01T12:40:55.017Z,98702.78
2022-10-01T12:45:02.947Z,98690.22
2022-10-01T12:49:22.418Z,98703.78
2022-10-01T12:53:51.320Z,98693.47
2022-10-01T12:57:57.284Z,98691.06
2022-10-01T13:02:30.425Z,98688.81
2022-10-01T13:06:54.285Z,98682.94
2022-10-01T13:11:25.189Z,98684.06
2022-10-01T13:15:35.135Z,98691.31
2022-10-01T13:19:37.307Z,98683.78
2022-10-01T13:23:50.328Z,98680.91
2022-10-01T13:28:21.327Z,98698.94
2022-10-01T13:32:35.799Z,98696.25
2022-10-01T13:36:38.344Z,98680.75
2022-10-01T13:40:41.301Z,98689.59
2022-10-01T13:44:43.442Z,98696.84
2022-10-01T13:48:49.132Z,98705.56
2022-10-01T13:52:53.250Z,98705.31
2022-10-01T13:56:55.648Z,98697.94
2022-10-01T14:01:00.982Z,98698.41
2022-10-01T14:05:23.386Z,98685.09
2022-10-01T14:09:32.650Z,98668.19
2022-10-01T14:14:02.210Z,98668.75
2022-10-01T14:18:10.309Z,98664.53
2022-10-01T14:22:26.915Z,98672.66
2022-10-01T14:26:43.071Z,98662.31
2022-10-01T14:31:17.105Z,98669.16
2022-10-01T14:35:20.738Z,98672.03
2022-10-01T14:39:26.260Z,98668.38
2022-10-01T14:43:31.575Z,98673.81
2022-10-01T14:47:36.019Z,98671.13
2022-10-01T14:51:49.258Z,98671.44
2022-10-01T14:55:54.985Z,98678.75
2022-10-01T15:00:01.134Z,98685.44
2022-10-01T15:04:14.777Z,98683.56
2022-10-01T15:08:39.556Z,98683.88
2022-10-01T15:12:41.938Z,98693.75
2022-10-01T15:16:44.648Z,98700.59
2022-10-01T15:21:00.390Z,98689.97
2022-10-01T15:25:02.668Z,98687.09
2022-10-01T15:29:12.212Z,98685.34
2022-10-01T15:33:41.360Z,98691.50
2022-10-01T15:37:49.966Z,98688.78
2022-10-01T15:41:54.857Z,98702.59
2022-10-01T15:46:11.182Z,98690.22
2022-10-01T15:50:13.408Z,98701.41
2022-10-01T15:54:15.658Z,98695.34
2022-10-01T15:58:35.224Z,98718.41
2022-10-01T16:02:37.524Z,98714.53
2022-10-01T16:06:49.246Z,98732.09
2022-10-01T16:11:13.038Z,98739.94
2022-10-01T16:15:28.032Z,98754.75
2022-10-01T16:19:31.406Z,98758.25
2022-10-01T16:23:34.876Z,98766.38
2022-10-01T16:27:48.548Z,98773.06
2022-10-01T16:31:51.311Z,98774.00
2022-10-01T16:36:08.195Z,98759.84
2022-10-01T16:40:15.785Z,98762.25
2022-10-01T16:44:19.999Z,98762.03
2022-10-01T16:48:25.128Z,98768.66
2022-10-01T16:52:27.175Z,98770.53
2022-10-01T16:56:29.815Z,98767.50
2022-10-01T17:00:32.971Z,98771.91
2022-10-01T17:04:35.432Z,98782.78
2022-10-01T17:08:37.583Z,98797.97
2022-10-01T17:12:41.692Z,98798.91
2022-10-01T17:16:44.014Z,98804.88
2022-10-01T17:20:46.813Z,98816.72
2022-10-01T17:24:49.286Z,98829.44
2022-10-01T17:28:51.484Z,98828.22
2022-10-01T17:32:53.545Z,98843.72
2022-10-01T17:36:55.847Z,98847.53
2022-10-01T17:41:00.452Z,98858.72
2022-10-01T17:45:06.573Z,98859.47
2022-10-01T17:49:08.875Z,98862.28
2022-10-01T17:53:12.364Z,98867.78
2022-10-01T17:57:14.446Z,98871.97
2022-10-01T18:01:20.408Z,98876.63
2022-10-01T18:05:22.677Z,98889.78
2022-10-01T18:09:25.344Z,98887.47
2022-10-01T18:13:27.573Z,98880.59
2022-10-01T18:17:32.637Z,98879.84
2022-10-01T18:21:34.973Z,98889.84
2022-10-01T18:25:37.545Z,98890.16
2022-10-01T18:29:39.759Z,98898.03
2022-10-01T18:33:55.596Z,98881.72
2022-10-01T18:38:12.705Z,98903.25
2022-10-01T18:42:21.226Z,98909.84
2022-10-01T18:46:23.405Z,98911.56
2022-10-01T18:51:11.991Z,98918.47
2022-10-01T18:55:42.917Z,98913.09
2022-10-01T19:00:08.871Z,98924.75
2022-10-01T19:04:35.185Z,98943.59
2022-10-01T19:09:01.677Z,98944.84
2022-10-01T19:13:41.260Z,98944.84
2022-10-01T19:18:18.420Z,98946.69
2022-10-01T19:22:46.892Z,98950.38
2022-10-01T19:27:19.600Z,98951.38
2022-10-01T19:31:35.638Z,98960.22
2022-10-01T19:35:46.710Z,98970.59
2022-10-01T19:39:51.753Z,98971.06
2022-10-01T19:44:04.734Z,98982.03
2022-10-01T19:48:23.808Z,98986.22
2022-10-01T19:52:30.370Z,98986.19
2022-10-01T19:56:34.931Z,98999.34
2022-10-01T20:00:38.036Z,99002.75
2022-10-01T20:04:53.507Z,99006.47
2022-10-01T20:09:03.657Z,99007.78
2022-10-01T20:13:21.367Z,99025.19
2022-10-01T20:17:41.829Z,99021.50
2022-10-01T20:22:10.834Z,99026.25
2022-10-01T20:26:25.956Z,99028.16
2022-10-01T20:30:33.918Z,99031.34
2022-10-01T20:34:57.402Z,99037.44
2022-10-01T20:39:13.687Z,99035.34
2022-10-01T20:43:22.264Z,99033.44
2022-10-01T20:47:40.425Z,99026.19
2022-10-01T20:51:53.476Z,99041.50
2022-10-01T20:56:02.092Z,99032.31
2022-10-01T21:00:23.360Z,99043.06
2022-10-01T21:04:32.354Z,99051.84
2022-10-01T21:08:52.726Z,99047.28
2022-10-01T21:13:07.699Z,99050.31
2022-10-01T21:17:25.096Z,99060.81
2022-10-01T21:21:55.163Z,99060.88
2022-10-01T21:26:26.773Z,99066.59
2022-10-01T21:30:57.049Z,99070.53
2022-10-01T21:35:24.131Z,99075.84
2022-10-01T21:39:45.648Z,99079.63
2022-10-01T21:44:11.378Z,99075.91
2022-10-01T21:48:27.599Z,99058.25
2022-10-01T21:52:49.773Z,99074.69
2022-10-01T21:57:14.793Z,99068.00
2022-10-01T22:01:39.123Z,99065.84
2022-10-01T22:05:57.291Z,99055.09
2022-10-01T22:10:10.434Z,99055.72
2022-10-01T22:14:19.580Z,99047.69
2022-10-01T22:18:35.981Z,99050.84
2022-10-01T22:22:39.378Z,99050.56
2022-10-01T22:26:49.739Z,99044.50
2022-10-01T22:30:56.313Z,99054.66
2022-10-01T22:35:03.835Z,99042.28
2022-10-01T22:39:23.095Z,99066.44
2022-10-01T22:43:25.331Z,99065.47
2022-10-01T22:47:39.496Z,99058.00
2022-10-01T22:51:50.036Z,99065.41
2022-10-01T22:55:57.163Z,99065.88
2022-10-01T23:00:07.551Z,99072.81
2022-10-01T23:04:43.726Z,99080.50
2022-10-01T23:08:55.020Z,99076.72
2022-10-01T23:13:35.854Z,99058.19
2022-10-01T23:17:54.229Z,99075.91
2022-10-01T23:22:11.270Z,99072.72
2022-10-01T23:26:35.235Z,99068.19
2022-10-01T23:31:00.270Z,99059.13
2022-10-01T23:35:20.952Z,99071.25
2022-10-01T23:39:41.330Z,99071.75
2022-10-01T23:43:50.996Z,99072.13
2022-10-01T23:48:05.927Z,99073.81
2022-10-01T23:52:21.455Z,99066.47
2022-10-01T23:56:49.028Z,99070.25
